createdAt,value
2018-01-07T00:00:13.918Z,92.06
2018-01-07T00:02:41.533Z,91.96
2018-01-07T00:05:09.129Z,91.92
2018-01-07T00:07:36.722Z,91.72
2018-01-07T00:10:04.360Z,92.22
2018-01-07T00:12:31.955Z,92.50
2018-01-07T00:14:59.548Z,92.43
2018-01-07T00:17:27.170Z,92.55
2018-01-07T00:19:54.865Z,92.75
2018-01-07T00:22:22.428Z,92.68
2018-01-07T00:24:50.042Z,93.27
2018-01-07T00:27:17.625Z,92.99
2018-01-07T00:29:45.238Z,93.28
2018-01-07T00:32:12.856Z,93.18
2018-01-07T00:34:40.418Z,93.30
2018-01-07T00:37:07.987Z,93.29
2018-01-07T00:39:35.614Z,92.88
2018-01-07T00:42:03.199Z,92.75
2018-01-07T00:44:30.768Z,92.81
2018-01-07T00:46:58.378Z,92.86
2018-01-07T00:49:25.961Z,92.88
2018-01-07T00:51:53.523Z,93.04
2018-01-07T00:54:21.133Z,93.29
2018-01-07T00:56:48.705Z,92.93
2018-01-07T00:59:16.295Z,92.71
2018-01-07T01:01:43.905Z,92.59
2018-01-07T01:04:11.480Z,92.52
2018-01-07T01:06:39.073Z,92.32
2018-01-07T01:09:06.685Z,92.09
2018-01-07T01:11:34.267Z,91.81
2018-01-07T01:14:01.839Z,91.84
2018-01-07T01:16:29.618Z,91.91
2018-01-07T01:18:57.205Z,92.11
2018-01-07T01:21:24.800Z,92.29
2018-01-07T01:23:52.422Z,92.47
2018-01-07T01:26:19.980Z,92.58
2018-01-07T01:28:47.599Z,92.65
2018-01-07T01:31:15.177Z,93.14
2018-01-07T01:33:42.762Z,93.68
2018-01-07T01:36:10.373Z,93.35
2018-01-07T01:38:37.932Z,92.94
2018-01-07T01:41:05.511Z,92.54
2018-01-07T01:43:33.125Z,92.60
2018-01-07T01:46:00.709Z,92.70
2018-01-07T01:48:28.285Z,92.31
2018-01-07T01:50:55.899Z,92.21
2018-01-07T01:53:23.461Z,92.38
2018-01-07T01:55:54.035Z,92.53
2018-01-07T01:58:21.637Z,92.73
2018-01-07T02:00:49.204Z,93.11
2018-01-07T02:03:16.770Z,93.23
2018-01-07T02:05:44.388Z,93.29
2018-01-07T02:08:12.001Z,93.34
2018-01-07T02:10:39.577Z,93.54
2018-01-07T02:13:07.192Z,93.50
2018-01-07T02:15:34.768Z,93.47
2018-01-07T02:18:02.346Z,93.45
2018-01-07T02:20:29.975Z,93.60
2018-01-07T02:22:57.566Z,93.50
2018-01-07T02:25:25.155Z,93.51
2018-01-07T02:27:52.762Z,93.62
2018-01-07T02:30:20.343Z,93.70
2018-01-07T02:32:47.922Z,93.96
2018-01-07T02:35:15.554Z,94.17
2018-01-07T02:37:43.129Z,94.17
2018-01-07T02:40:10.706Z,94.21
2018-01-07T02:42:38.406Z,94.14
2018-01-07T02:45:05.985Z,94.10
2018-01-07T02:47:33.566Z,94.28
2018-01-07T02:50:01.195Z,94.14
2018-01-07T02:52:28.794Z,94.05
2018-01-07T02:54:56.390Z,94.15
2018-01-07T02:57:24.012Z,93.96
2018-01-07T02:59:51.589Z,94.00
2018-01-07T03:02:19.176Z,94.04
2018-01-07T03:04:46.811Z,93.91
2018-01-07T03:07:14.395Z,94.10
2018-01-07T03:09:41.968Z,94.23
2018-01-07T03:12:09.583Z,94.32
2018-01-07T03:14:37.173Z,94.34
2018-01-07T03:17:04.754Z,94.38
2018-01-07T03:19:32.367Z,94.44
2018-01-07T03:21:59.945Z,94.59
2018-01-07T03:24:27.561Z,94.47
2018-01-07T03:26:55.219Z,94.38
2018-01-07T03:29:22.797Z,94.36
2018-01-07T03:31:50.379Z,94.43
2018-01-07T03:34:18.023Z,94.42
2018-01-07T03:36:45.612Z,94.42
2018-01-07T03:39:13.193Z,94.53
2018-01-07T03:41:40.804Z,94.45
2018-01-07T03:44:08.445Z,94.72
2018-01-07T03:46:36.037Z,94.96
2018-01-07T03:49:03.687Z,95.01
2018-01-07T03:51:31.269Z,94.86
2018-01-07T03:53:58.845Z,95.09
2018-01-07T03:56:26.453Z,95.40
2018-01-07T03:58:54.029Z,95.46
2018-01-07T04:01:21.604Z,95.15
2018-01-07T04:03:49.240Z,94.67
2018-01-07T04:06:16.812Z,94.72
2018-01-07T04:08:44.410Z,94.64
2018-01-07T04:11:12.023Z,94.57
2018-01-07T04:13:39.613Z,93.97
2018-01-07T04:16:07.220Z,93.71
2018-01-07T04:18:34.858Z,93.96
2018-01-07T04:21:02.439Z,93.93
2018-01-07T04:23:30.029Z,93.71
2018-01-07T04:25:57.633Z,93.47
2018-01-07T04:28:25.209Z,93.59
2018-01-07T04:30:52.792Z,93.33
2018-01-07T04:33:20.417Z,93.37
2018-01-07T04:35:48.010Z,93.25
2018-01-07T04:38:15.585Z,93.37
2018-01-07T04:40:43.220Z,93.24
2018-01-07T04:43:10.787Z,93.32
2018-01-07T04:45:38.372Z,93.34
2018-01-07T04:48:06.047Z,93.52
2018-01-07T04:50:33.634Z,93.61
2018-01-07T04:53:01.215Z,93.68
2018-01-07T04:55:28.850Z,93.92
2018-01-07T04:57:56.441Z,94.19
2018-01-07T05:00:24.033Z,94.10
2018-01-07T05:02:51.657Z,94.40
2018-01-07T05:05:19.215Z,94.28
2018-01-07T05:07:46.808Z,94.12
2018-01-07T05:10:14.423Z,93.87
2018-01-07T05:12:42.005Z,93.85
2018-01-07T05:15:09.568Z,93.88
2018-01-07T05:17:37.221Z,93.93
2018-01-07T05:20:04.820Z,94.34
2018-01-07T05:22:32.406Z,94.09
2018-01-07T05:25:00.037Z,94.33
2018-01-07T05:27:27.620Z,94.27
2018-01-07T05:29:55.184Z,94.05
2018-01-07T05:32:22.814Z,94.12
2018-01-07T05:34:50.389Z,94.09
2018-01-07T05:37:17.957Z,94.06
2018-01-07T05:39:45.580Z,94.10
2018-01-07T05:42:13.167Z,94.13
2018-01-07T05:44:40.783Z,94.10
2018-01-07T05:47:08.392Z,94.19
2018-01-07T05:49:35.959Z,94.16
2018-01-07T05:52:03.544Z,94.28
2018-01-07T05:54:31.171Z,94.09
2018-01-07T05:56:58.754Z,93.97
2018-01-07T05:59:26.359Z,93.83
2018-01-07T06:01:54.129Z,93.66
2018-01-07T06:04:21.718Z,93.56
2018-01-07T06:06:49.306Z,93.71
2018-01-07T06:09:16.929Z,93.25
2018-01-07T06:11:44.491Z,93.17
2018-01-07T06:14:12.060Z,93.01
2018-01-07T06:16:39.743Z,92.98
2018-01-07T06:19:07.334Z,92.88
2018-01-07T06:21:34.916Z,92.75
2018-01-07T06:24:02.545Z,92.45
2018-01-07T06:26:30.132Z,92.12
2018-01-07T06:28:57.756Z,91.89
2018-01-07T06:31:25.345Z,91.73
2018-01-07T06:33:52.925Z,91.92
2018-01-07T06:36:20.566Z,92.00
2018-01-07T06:38:48.161Z,92.50
2018-01-07T06:41:15.748Z,92.39
2018-01-07T06:43:44.597Z,91.64
2018-01-07T06:46:12.254Z,84.08
2018-01-07T06:48:39.857Z,78.17
2018-01-07T06:51:07.496Z,72.76
2018-01-07T06:53:35.097Z,63.59
2018-01-07T06:56:02.724Z,60.51
2018-01-07T06:58:30.339Z,57.09
2018-01-07T07:00:57.921Z,55.68
2018-01-07T07:03:25.514Z,54.46
2018-01-07T07:05:53.151Z,54.01
2018-01-07T07:08:20.744Z,53.98
2018-01-07T07:10:48.322Z,53.92
2018-01-07T07:13:15.963Z,52.82
2018-01-07T07:15:43.576Z,51.39
2018-01-07T07:18:11.149Z,51.45
2018-01-07T07:20:38.791Z,49.61
2018-01-07T07:23:06.394Z,48.45
2018-01-07T07:25:33.992Z,52.83
2018-01-07T07:28:01.625Z,51.41
2018-01-07T07:30:29.209Z,50.48
2018-01-07T07:32:56.811Z,49.82
2018-01-07T07:35:24.430Z,48.05
2018-01-07T07:37:52.199Z,47.43
2018-01-07T07:40:19.783Z,48.02
2018-01-07T07:42:47.402Z,48.22
2018-01-07T07:45:15.143Z,49.75
2018-01-07T07:47:42.724Z,47.39
2018-01-07T07:50:10.337Z,47.04
2018-01-07T07:52:37.921Z,47.98
2018-01-07T07:55:05.514Z,49.53
2018-01-07T07:57:33.129Z,47.67
2018-01-07T08:00:00.754Z,46.37
2018-01-07T08:02:28.343Z,46.06
2018-01-07T08:04:56.036Z,46.67
2018-01-07T08:07:23.603Z,46.91
2018-01-07T08:09:51.188Z,45.13
2018-01-07T08:12:18.822Z,45.11
2018-01-07T08:14:46.391Z,44.95
2018-01-07T08:17:13.973Z,43.04
2018-01-07T08:19:41.597Z,43.48
2018-01-07T08:22:09.173Z,42.54
2018-01-07T08:24:36.754Z,42.84
2018-01-07T08:27:04.397Z,42.21
2018-01-07T08:29:31.999Z,42.46
2018-01-07T08:31:59.598Z,42.20
2018-01-07T08:34:27.347Z,42.20
2018-01-07T08:36:54.934Z,41.07
2018-01-07T08:39:22.525Z,42.98
2018-01-07T08:41:50.386Z,41.37
2018-01-07T08:44:17.973Z,41.85
2018-01-07T08:46:45.568Z,42.72
2018-01-07T08:49:13.192Z,43.03
2018-01-07T08:51:40.839Z,43.19
2018-01-07T08:54:08.424Z,41.00
2018-01-07T08:56:36.569Z,40.95
2018-01-07T08:59:04.179Z,40.30
2018-01-07T09:01:31.828Z,39.42
2018-01-07T09:03:59.451Z,40.00
2018-01-07T09:06:27.042Z,37.96
2018-01-07T09:08:54.644Z,38.87
2018-01-07T09:11:22.265Z,36.27
2018-01-07T09:13:49.865Z,35.75
2018-01-07T09:16:17.459Z,35.74
2018-01-07T09:18:45.133Z,35.53
2018-01-07T09:21:12.721Z,34.71
2018-01-07T09:23:41.216Z,35.54
2018-01-07T09:26:09.149Z,34.10
2018-01-07T09:28:36.738Z,33.11
2018-01-07T09:31:04.346Z,33.66
2018-01-07T09:33:31.978Z,32.82
2018-01-07T09:35:59.571Z,32.87
2018-01-07T09:38:27.172Z,32.00
2018-01-07T09:40:54.797Z,32.24
2018-01-07T09:43:22.396Z,32.30
2018-01-07T09:45:49.985Z,32.17
2018-01-07T09:48:17.616Z,33.40
2018-01-07T09:50:45.222Z,32.59
2018-01-07T09:53:12.819Z,31.96
2018-01-07T09:55:40.477Z,31.71
2018-01-07T09:58:08.062Z,31.12
2018-01-07T10:00:35.654Z,31.43
2018-01-07T10:03:03.305Z,30.69
2018-01-07T10:05:30.897Z,31.11
2018-01-07T10:07:58.487Z,30.57
2018-01-07T10:10:26.142Z,29.63
2018-01-07T10:12:53.752Z,30.28
2018-01-07T10:15:21.385Z,30.60
2018-01-07T10:17:49.024Z,30.07
2018-01-07T10:20:16.608Z,28.80
2018-01-07T10:22:44.201Z,29.09
2018-01-07T10:25:11.853Z,29.72
2018-01-07T10:27:39.446Z,28.50
2018-01-07T10:30:07.076Z,29.16
2018-01-07T10:32:34.691Z,28.07
2018-01-07T10:35:02.263Z,28.51
2018-01-07T10:37:29.830Z,27.37
2018-01-07T10:39:57.477Z,28.29
2018-01-07T10:42:25.125Z,28.24
2018-01-07T10:44:52.731Z,28.65
2018-01-07T10:47:20.355Z,29.94
2018-01-07T10:49:47.936Z,29.76
2018-01-07T10:52:15.506Z,28.93
2018-01-07T10:54:43.122Z,29.99
2018-01-07T10:57:10.688Z,31.19
2018-01-07T10:59:38.278Z,29.19
2018-01-07T11:02:05.948Z,28.25
2018-01-07T11:04:33.532Z,28.08
2018-01-07T11:07:01.125Z,28.48
2018-01-07T11:09:28.761Z,29.62
2018-01-07T11:11:56.359Z,30.07
2018-01-07T11:14:23.957Z,30.39
2018-01-07T11:16:51.598Z,29.62
2018-01-07T11:19:19.177Z,29.53
2018-01-07T11:21:46.762Z,30.65
2018-01-07T11:24:14.414Z,28.19
2018-01-07T11:26:41.983Z,26.96
2018-01-07T11:29:09.573Z,26.30
2018-01-07T11:31:37.201Z,25.56
2018-01-07T11:34:04.962Z,24.48
2018-01-07T11:36:32.539Z,23.10
2018-01-07T11:39:00.147Z,23.41
2018-01-07T11:41:30.956Z,23.92
2018-01-07T11:44:01.645Z,24.50
2018-01-07T11:46:33.923Z,23.28
2018-01-07T11:49:04.420Z,24.40
2018-01-07T11:51:34.725Z,23.22
2018-01-07T11:54:05.267Z,25.44
2018-01-07T11:56:32.994Z,24.41
2018-01-07T11:59:00.590Z,23.92
2018-01-07T12:01:28.211Z,24.20
2018-01-07T12:03:55.775Z,21.57
2018-01-07T12:06:23.358Z,22.63
2018-01-07T12:08:50.960Z,25.45
2018-01-07T12:11:18.536Z,26.65
2018-01-07T12:13:46.105Z,25.94
2018-01-07T12:16:13.738Z,25.28
2018-01-07T12:18:41.290Z,24.34
2018-01-07T12:21:08.857Z,23.69
2018-01-07T12:23:36.635Z,25.54
2018-01-07T12:26:04.229Z,24.61
2018-01-07T12:28:31.835Z,24.30
2018-01-07T12:30:59.609Z,22.80
2018-01-07T12:33:27.854Z,22.21
2018-01-07T12:35:55.420Z,23.20
2018-01-07T12:38:23.031Z,24.19
2018-01-07T12:40:50.592Z,23.66
2018-01-07T12:43:18.161Z,23.90
2018-01-07T12:45:45.763Z,23.35
2018-01-07T12:48:13.343Z,23.07
2018-01-07T12:50:40.907Z,23.19
2018-01-07T12:53:08.509Z,23.42
2018-01-07T12:55:36.068Z,22.87
2018-01-07T12:58:03.637Z,23.10
2018-01-07T13:00:31.284Z,22.90
2018-01-07T13:02:58.853Z,21.95
2018-01-07T13:05:26.438Z,21.79
2018-01-07T13:07:54.044Z,21.89
2018-01-07T13:10:21.606Z,20.44
2018-01-07T13:12:49.190Z,19.92
2018-01-07T13:15:16.796Z,20.82
2018-01-07T13:17:44.481Z,21.78
2018-01-07T13:20:12.067Z,20.96
2018-01-07T13:22:39.671Z,22.68
2018-01-07T13:25:07.553Z,21.02
2018-01-07T13:27:35.106Z,22.27
2018-01-07T13:30:02.759Z,21.68
2018-01-07T13:32:30.337Z,21.71
2018-01-07T13:34:57.966Z,22.06
2018-01-07T13:37:25.587Z,21.61
2018-01-07T13:39:53.155Z,21.82
2018-01-07T13:42:20.732Z,23.51
2018-01-07T13:44:48.357Z,22.38
2018-01-07T13:47:15.935Z,22.41
2018-01-07T13:49:43.528Z,22.49
2018-01-07T13:52:11.129Z,24.30
2018-01-07T13:54:38.708Z,22.93
2018-01-07T13:57:06.274Z,24.35
2018-01-07T13:59:33.878Z,25.92
2018-01-07T14:02:01.520Z,24.87
2018-01-07T14:04:29.104Z,26.46
2018-01-07T14:06:56.711Z,25.86
2018-01-07T14:09:24.291Z,26.25
2018-01-07T14:11:51.870Z,26.41
2018-01-07T14:14:19.480Z,27.24
2018-01-07T14:16:47.049Z,29.22
2018-01-07T14:19:14.625Z,30.99
2018-01-07T14:21:42.283Z,33.83
2018-01-07T14:24:09.845Z,36.36
2018-01-07T14:26:37.408Z,39.82
2018-01-07T14:29:05.150Z,41.71
2018-01-07T14:31:32.711Z,43.24
2018-01-07T14:34:00.280Z,45.30
2018-01-07T14:36:27.884Z,46.85
2018-01-07T14:38:55.463Z,48.60
2018-01-07T14:41:23.021Z,49.33
2018-01-07T14:43:50.711Z,51.23
2018-01-07T14:46:18.519Z,52.45
2018-01-07T14:48:46.074Z,53.67
2018-01-07T14:51:13.690Z,54.89
2018-01-07T14:53:41.263Z,56.07
2018-01-07T14:56:08.869Z,57.39
2018-01-07T14:58:36.484Z,58.51
2018-01-07T15:01:04.066Z,59.63
2018-01-07T15:03:31.684Z,60.43
2018-01-07T15:05:59.270Z,61.44
2018-01-07T15:08:26.843Z,61.94
2018-01-07T15:10:54.416Z,62.92
2018-01-07T15:13:22.054Z,63.58
2018-01-07T15:15:49.681Z,64.57
2018-01-07T15:18:17.254Z,64.79
2018-01-07T15:20:44.841Z,65.95
2018-01-07T15:23:12.433Z,66.24
2018-01-07T15:25:40.012Z,66.79
2018-01-07T15:28:07.665Z,67.38
2018-01-07T15:30:35.468Z,67.79
2018-01-07T15:33:03.085Z,68.69
2018-01-07T15:35:30.686Z,69.74
2018-01-07T15:37:58.255Z,69.66
2018-01-07T15:40:25.874Z,70.66
2018-01-07T15:42:53.463Z,71.25
2018-01-07T15:45:21.022Z,72.32
2018-01-07T15:47:48.647Z,73.29
2018-01-07T15:50:16.218Z,73.89
2018-01-07T15:52:43.782Z,73.23
2018-01-07T15:55:11.404Z,73.24
2018-01-07T15:57:38.979Z,72.78
2018-01-07T16:00:06.607Z,73.00
2018-01-07T16:02:34.224Z,73.56
2018-01-07T16:05:01.828Z,75.02
2018-01-07T16:07:29.393Z,75.25
2018-01-07T16:09:56.988Z,74.60
2018-01-07T16:12:24.566Z,74.31
2018-01-07T16:14:52.184Z,74.57
2018-01-07T16:17:19.850Z,74.75
2018-01-07T16:19:47.478Z,75.14
2018-01-07T16:22:15.068Z,74.00
2018-01-07T16:24:42.663Z,74.81
2018-01-07T16:27:10.248Z,76.09
2018-01-07T16:29:37.834Z,77.14
2018-01-07T16:32:05.423Z,77.25
2018-01-07T16:34:32.994Z,77.09
2018-01-07T16:37:00.564Z,77.80
2018-01-07T16:39:28.145Z,78.41
2018-01-07T16:41:55.712Z,78.34
2018-01-07T16:44:23.304Z,78.64
2018-01-07T16:46:51.074Z,77.42
2018-01-07T16:49:18.641Z,78.91
2018-01-07T16:51:46.203Z,79.78
2018-01-07T16:54:13.832Z,79.98
2018-01-07T16:56:41.393Z,80.33
2018-01-07T16:59:09.030Z,80.31
2018-01-07T17:01:36.661Z,80.54
2018-01-07T17:04:04.240Z,80.37
2018-01-07T17:06:31.815Z,80.86
2018-01-07T17:08:59.442Z,80.72
2018-01-07T17:11:26.995Z,81.42
2018-01-07T17:13:54.550Z,82.07
2018-01-07T17:16:22.160Z,84.51
2018-01-07T17:18:49.735Z,84.35
2018-01-07T17:21:17.292Z,84.91
2018-01-07T17:23:44.926Z,85.41
2018-01-07T17:26:12.746Z,85.23
2018-01-07T17:28:40.289Z,84.59
2018-01-07T17:31:07.870Z,85.22
2018-01-07T17:33:35.440Z,85.13
2018-01-07T17:36:03.038Z,86.63
2018-01-07T17:38:30.654Z,87.01
2018-01-07T17:40:58.212Z,86.91
2018-01-07T17:43:25.787Z,86.07
2018-01-07T17:45:53.492Z,85.82
2018-01-07T17:48:21.187Z,85.16
2018-01-07T17:50:48.964Z,85.61
2018-01-07T17:53:17.848Z,85.12
2018-01-07T17:55:45.672Z,84.23
2018-01-07T17:58:13.331Z,83.96
2018-01-07T18:00:41.129Z,83.80
2018-01-07T18:03:08.728Z,84.04
2018-01-07T18:05:36.291Z,84.59
2018-01-07T18:08:03.893Z,84.87
2018-01-07T18:10:31.500Z,84.83
2018-01-07T18:12:59.258Z,85.29
2018-01-07T18:15:27.108Z,86.14
2018-01-07T18:17:54.870Z,86.26
2018-01-07T18:20:22.457Z,85.64
2018-01-07T18:22:50.082Z,84.41
2018-01-07T18:25:17.846Z,84.25
2018-01-07T18:27:45.421Z,84.68
2018-01-07T18:30:13.083Z,85.04
2018-01-07T18:32:40.664Z,85.17
2018-01-07T18:35:08.246Z,85.22
2018-01-07T18:37:35.855Z,85.40
2018-01-07T18:40:03.421Z,84.94
2018-01-07T18:42:31.005Z,84.53
2018-01-07T18:44:58.749Z,84.72
2018-01-07T18:47:26.320Z,85.10
2018-01-07T18:49:53.983Z,85.11
2018-01-07T18:52:21.613Z,85.47
2018-01-07T18:54:49.184Z,85.75
2018-01-07T18:57:16.759Z,86.47
2018-01-07T18:59:44.377Z,86.41
2018-01-07T19:02:11.935Z,87.23
2018-01-07T19:04:39.494Z,88.27
2018-01-07T19:07:07.092Z,88.34
2018-01-07T19:09:34.665Z,89.94
2018-01-07T19:12:02.246Z,89.84
2018-01-07T19:14:29.842Z,89.34
2018-01-07T19:16:57.519Z,89.30
2018-01-07T19:19:25.189Z,90.29
2018-01-07T19:21:52.812Z,90.64
2018-01-07T19:24:20.383Z,89.64
2018-01-07T19:26:47.956Z,88.48
2018-01-07T19:29:15.551Z,88.66
2018-01-07T19:31:43.103Z,88.38
2018-01-07T19:34:10.671Z,87.82
2018-01-07T19:36:38.278Z,87.77
2018-01-07T19:39:05.829Z,88.53
2018-01-07T19:41:33.382Z,88.27
2018-01-07T19:44:01.087Z,88.42
2018-01-07T19:46:28.674Z,88.15
2018-01-07T19:48:56.261Z,87.75
2018-01-07T19:51:23.871Z,88.45
2018-01-07T19:53:51.457Z,88.62
2018-01-07T19:56:19.118Z,88.16
2018-01-07T19:58:46.729Z,88.45
2018-01-07T20:01:14.304Z,88.98
2018-01-07T20:03:41.869Z,89.02
2018-01-07T20:06:09.501Z,89.27
2018-01-07T20:08:37.087Z,88.83
2018-01-07T20:11:04.657Z,89.05
2018-01-07T20:13:32.261Z,88.89
2018-01-07T20:15:59.931Z,89.50
2018-01-07T20:18:27.506Z,89.21
2018-01-07T20:20:55.225Z,89.03
2018-01-07T20:23:22.892Z,89.03
2018-01-07T20:25:50.468Z,89.76
2018-01-07T20:28:18.103Z,90.59
2018-01-07T20:30:45.776Z,90.12
2018-01-07T20:33:13.337Z,89.65
2018-01-07T20:35:41.013Z,89.47
2018-01-07T20:38:08.578Z,89.44
2018-01-07T20:40:36.155Z,89.85
2018-01-07T20:43:03.747Z,90.46
2018-01-07T20:45:31.315Z,90.73
2018-01-07T20:47:59.077Z,91.24
2018-01-07T20:50:26.677Z,90.83
2018-01-07T20:52:54.407Z,90.71
2018-01-07T20:55:21.988Z,90.82
2018-01-07T20:57:49.639Z,91.08
2018-01-07T21:00:17.391Z,90.86
2018-01-07T21:02:44.969Z,90.66
2018-01-07T21:05:12.574Z,91.30
2018-01-07T21:07:40.140Z,91.30
2018-01-07T21:10:07.696Z,91.18
2018-01-07T21:12:35.317Z,90.58
2018-01-07T21:15:02.973Z,90.78
2018-01-07T21:17:30.639Z,91.05
2018-01-07T21:19:58.265Z,91.69
2018-01-07T21:22:25.940Z,92.85
2018-01-07T21:24:53.507Z,92.99
2018-01-07T21:27:21.116Z,92.80
2018-01-07T21:29:48.947Z,92.84
2018-01-07T21:32:16.519Z,92.75
2018-01-07T21:34:44.117Z,92.32
2018-01-07T21:37:11.681Z,92.28
2018-01-07T21:39:39.257Z,92.17
2018-01-07T21:42:07.202Z,92.01
2018-01-07T21:44:34.771Z,91.87
2018-01-07T21:47:02.398Z,91.95
2018-01-07T21:49:30.015Z,91.43
2018-01-07T21:51:57.583Z,91.19
2018-01-07T21:54:25.142Z,91.13
2018-01-07T21:56:52.823Z,91.69
2018-01-07T21:59:20.404Z,92.21
2018-01-07T22:04:59.056Z,92.88
2018-01-07T22:07:26.896Z,93.33
2018-01-07T22:09:54.457Z,93.12
2018-01-07T22:12:22.173Z,93.05
2018-01-07T22:14:49.866Z,93.26
2018-01-07T22:17:17.426Z,93.06
2018-01-07T22:19:45.188Z,93.14
2018-01-07T22:22:12.810Z,93.29
2018-01-07T22:24:40.531Z,92.82
2018-01-07T22:27:08.193Z,92.57
2018-01-07T22:29:35.842Z,92.44
2018-01-07T22:32:03.518Z,92.20
2018-01-07T22:34:31.091Z,92.26
2018-01-07T22:36:58.712Z,92.24
2018-01-07T22:39:26.284Z,91.87
2018-01-07T22:41:53.863Z,91.86
2018-01-07T22:44:21.541Z,92.02
2018-01-07T22:46:49.114Z,92.29
2018-01-07T22:49:16.680Z,92.51
2018-01-07T22:51:44.381Z,92.49
2018-01-07T22:54:12.058Z,92.39
2018-01-07T22:56:39.604Z,92.55
2018-01-07T22:59:07.245Z,92.84
2018-01-07T23:01:34.843Z,93.14
2018-01-07T23:04:02.586Z,93.37
2018-01-07T23:06:30.381Z,93.61
2018-01-07T23:08:57.956Z,93.68
2018-01-07T23:11:25.689Z,93.49
2018-01-07T23:13:53.365Z,93.54
2018-01-07T23:16:21.015Z,93.29
2018-01-07T23:18:48.594Z,93.12
2018-01-07T23:21:16.226Z,92.98
2018-01-07T23:23:43.798Z,93.21
2018-01-07T23:26:11.371Z,93.04
2018-01-07T23:28:39.136Z,93.22
2018-01-07T23:31:06.788Z,93.31
2018-01-07T23:33:34.364Z,93.30
2018-01-07T23:36:01.988Z,93.55
2018-01-07T23:38:29.784Z,93.84
2018-01-07T23:40:57.365Z,93.94
2018-01-07T23:43:25.061Z,93.85
2018-01-07T23:45:52.768Z,93.66
2018-01-07T23:48:20.346Z,93.83
2018-01-07T23:50:48.260Z,94.21
2018-01-07T23:53:15.944Z,94.59
2018-01-07T23:55:43.519Z,95.15
2018-01-07T23:58:11.121Z,94.69
